Time;durP1;ratioP1;P1;durP2;ratioP2;P2;SDS_P1;SDS_P2;PMS_P1;PMS_P2;Temp;Humidity;BMP_temperature;BMP_pressure;BME280_temperature;BME280_humidity;BME280_pressure;Samples;Min_cycle;Max_cycle;Signal;HPM_P1;HPM_P2
2022/06/26 03:01:36;;;;;;;2.28;1.10;;;27.70;43.60;;;;;;5388127;23;45679;-63
2022/06/26 03:04:03;;;;;;;4.43;1.65;;;27.70;43.60;;;;;;4902228;28;44893;-58
2022/06/26 03:06:29;;;;;;;3.13;1.40;;;27.70;43.60;;;;;;4918874;28;45235;-57
2022/06/26 03:08:55;;;;;;;3.50;1.38;;;27.60;43.60;;;;;;4938417;28;45300;-58
2022/06/26 03:11:21;;;;;;;2.88;1.40;;;27.60;43.60;;;;;;4937210;28;44676;-56
2022/06/26 03:13:48;;;;;;;1.35;1.17;;;27.60;43.50;;;;;;4922392;28;45411;-60
2022/06/26 03:16:14;;;;;;;5.50;1.60;;;27.60;43.60;;;;;;4937612;28;46030;-62
2022/06/26 03:18:41;;;;;;;4.40;1.52;;;27.60;43.60;;;;;;4940448;28;45260;-60
2022/06/26 03:21:07;;;;;;;5.13;1.35;;;27.60;43.60;;;;;;4940050;28;45231;-59
2022/06/26 03:26:18;;;;;;;2.42;1.27;;;27.60;43.70;;;;;;4937688;28;46267;-61
2022/06/26 03:28:44;;;;;;;1.30;1.20;;;27.60;43.60;;;;;;4940262;28;45180;-58
2022/06/26 03:31:10;;;;;;;2.08;1.27;;;27.60;43.60;;;;;;4937458;28;45270;-64
2022/06/26 03:33:37;;;;;;;1.73;1.30;;;27.50;43.60;;;;;;4937110;28;44846;-61
2022/06/26 03:36:03;;;;;;;2.50;1.60;;;27.50;43.60;;;;;;4933928;28;46741;-61
2022/06/26 03:38:29;;;;;;;1.92;1.25;;;27.50;43.70;;;;;;4937210;28;45246;-59
2022/06/26 03:40:55;;;;;;;3.05;1.40;;;27.50;43.60;;;;;;4938181;28;44672;-61
2022/06/26 03:43:22;;;;;;;3.42;1.42;;;27.50;43.60;;;;;;4940210;28;45236;-60
2022/06/26 03:45:48;;;;;;;4.18;1.58;;;27.50;43.50;;;;;;4938469;28;47025;-63
2022/06/26 03:48:14;;;;;;;2.25;1.25;;;27.50;43.60;;;;;;4919297;28;45281;-60
2022/06/26 03:50:41;;;;;;;2.85;1.40;;;27.50;43.60;;;;;;4938368;28;45555;-60
2022/06/26 03:53:07;;;;;;;2.75;1.30;;;27.50;43.60;;;;;;4937502;28;45464;-59
2022/06/26 03:55:34;;;;;;;3.92;1.65;;;27.50;43.60;;;;;;4938478;28;45574;-61
2022/06/26 03:58:01;;;;;;;2.33;1.20;;;27.50;43.60;;;;;;4937721;28;45662;-59
2022/06/26 04:00:28;;;;;;;3.13;1.38;;;27.50;44.00;;;;;;4920417;28;45316;-58
2022/06/26 04:02:54;;;;;;;3.15;1.40;;;27.50;43.60;;;;;;4937704;28;44922;-61
2022/06/26 04:05:21;;;;;;;2.58;1.17;;;27.50;43.60;;;;;;4925869;28;46104;-62
2022/06/26 04:07:47;;;;;;;3.25;1.23;;;27.40;43.60;;;;;;4929544;28;45556;-60
2022/06/26 04:10:14;;;;;;;3.33;1.67;;;27.40;43.70;;;;;;4927348;28;45564;-63
2022/06/26 04:12:40;;;;;;;3.38;1.60;;;27.40;43.70;;;;;;4913164;28;45343;-61
2022/06/26 04:15:07;;;;;;;3.85;1.60;;;27.40;43.70;;;;;;4928321;28;47062;-62
2022/06/26 04:17:34;;;;;;;5.32;1.38;;;27.40;43.70;;;;;;4928344;28;45330;-64
2022/06/26 04:20:00;;;;;;;3.28;1.30;;;27.40;43.70;;;;;;4925732;28;44784;-67
2022/06/26 04:22:26;;;;;;;2.47;1.25;;;27.40;43.70;;;;;;4929278;28;45738;-64
2022/06/26 04:24:53;;;;;;;3.08;1.20;;;27.40;43.70;;;;;;4930393;28;46829;-64
2022/06/26 04:27:19;;;;;;;6.80;1.90;;;27.40;43.80;;;;;;4929321;28;45438;-62
2022/06/26 04:29:46;;;;;;;2.38;1.50;;;27.40;43.90;;;;;;4929926;28;45624;-63
2022/06/26 04:32:12;;;;;;;1.83;1.33;;;27.40;43.90;;;;;;4930480;28;44950;-65
2022/06/26 04:34:38;;;;;;;3.25;1.15;;;27.40;44.00;;;;;;4928795;28;46288;-65
2022/06/26 04:37:05;;;;;;;4.72;1.58;;;27.40;44.00;;;;;;4930443;28;45554;-65
2022/06/26 04:39:31;;;;;;;3.13;1.30;;;27.40;44.00;;;;;;4929423;28;45457;-65
2022/06/26 04:41:57;;;;;;;3.63;1.17;;;27.30;44.00;;;;;;4911492;28;45265;-61
2022/06/26 04:44:24;;;;;;;4.75;1.40;;;27.30;44.10;;;;;;4930070;28;47831;-63
2022/06/26 04:46:50;;;;;;;7.38;1.58;;;27.30;44.20;;;;;;4934164;28;45205;-67
2022/06/26 04:49:16;;;;;;;5.63;1.38;;;27.30;44.10;;;;;;4933526;28;45547;-64
2022/06/26 04:51:42;;;;;;;3.90;1.30;;;27.30;44.20;;;;;;4933111;28;45751;-62
2022/06/26 04:54:09;;;;;;;1.40;1.20;;;27.30;44.30;;;;;;4932633;28;47169;-64
2022/06/26 04:56:36;;;;;;;3.75;1.30;;;27.30;44.40;;;;;;4932878;28;45338;-65
2022/06/26 04:59:03;;;;;;;2.35;1.38;;;27.20;44.50;;;;;;4933911;28;46463;-67
2022/06/26 05:01:29;;;;;;;3.53;1.45;;;27.20;44.70;;;;;;4930827;28;45594;-64
2022/06/26 05:03:56;;;;;;;4.70;1.20;;;27.20;44.80;;;;;;4932197;28;46030;-63
2022/06/26 05:06:22;;;;;;;1.52;1.17;;;27.10;44.80;;;;;;4936316;28;45402;-63
2022/06/26 05:08:49;;;;;;;3.28;1.33;;;27.10;45.00;;;;;;4934566;28;45079;-67
2022/06/26 05:11:15;;;;;;;3.55;1.10;;;27.00;45.10;;;;;;4932945;28;45654;-67
2022/06/26 05:13:41;;;;;;;4.82;1.38;;;27.00;45.20;;;;;;4933296;28;46138;-63
2022/06/26 05:16:07;;;;;;;3.35;1.30;;;27.00;45.30;;;;;;4934808;28;45148;-64
2022/06/26 05:18:34;;;;;;;2.08;1.17;;;26.90;45.30;;;;;;4917487;28;45330;-60
2022/06/26 05:21:00;;;;;;;3.30;1.20;;;27.00;45.50;;;;;;4933151;28;45429;-68
2022/06/26 05:23:27;;;;;;;2.38;1.20;;;26.90;45.60;;;;;;4932944;28;46158;-71
2022/06/26 05:25:53;;;;;;;2.15;1.10;;;26.90;45.70;;;;;;4917169;28;45485;-63
2022/06/26 05:28:19;;;;;;;2.25;1.17;;;26.90;45.80;;;;;;4934713;28;45348;-62
2022/06/26 05:30:46;;;;;;;1.55;1.02;;;26.80;45.80;;;;;;4933395;28;44797;-64
2022/06/26 05:33:12;;;;;;;3.42;1.10;;;26.80;46.00;;;;;;4916559;28;45988;-64
2022/06/26 05:35:39;;;;;;;1.83;1.00;;;26.80;46.00;;;;;;4929383;28;45509;-63
2022/06/26 05:38:05;;;;;;;3.33;1.45;;;26.90;46.10;;;;;;4934960;28;45460;-62
2022/06/26 05:40:31;;;;;;;1.92;1.10;;;26.80;46.00;;;;;;4932462;28;45306;-63
2022/06/26 05:42:58;;;;;;;1.27;0.98;;;26.80;46.70;;;;;;4933867;28;46079;-64
2022/06/26 05:45:24;;;;;;;1.65;1.30;;;26.80;46.00;;;;;;4932711;28;45372;-69
2022/06/26 05:47:50;;;;;;;6.55;1.20;;;26.80;46.10;;;;;;4932365;28;45549;-65
2022/06/26 05:50:17;;;;;;;1.40;1.00;;;26.90;46.10;;;;;;4932100;28;45346;-63
2022/06/26 05:52:43;;;;;;;2.08;1.10;;;26.90;46.10;;;;;;4933221;28;46783;-69
2022/06/26 05:55:10;;;;;;;2.53;1.02;;;26.90;46.10;;;;;;4932819;28;45716;-61
2022/06/26 05:57:36;;;;;;;3.08;0.90;;;26.90;46.00;;;;;;4934371;28;45440;-59
2022/06/26 06:00:04;;;;;;;2.35;1.10;;;27.00;45.80;;;;;;4933381;28;45659;-62
2022/06/26 06:02:31;;;;;;;3.33;1.10;;;27.00;45.70;;;;;;4933916;28;46038;-67
2022/06/26 06:04:57;;;;;;;1.75;0.93;;;27.00;45.70;;;;;;4933167;28;45207;-70
2022/06/26 06:07:23;;;;;;;3.60;1.20;;;27.10;45.80;;;;;;4932951;28;44730;-64
2022/06/26 06:09:50;;;;;;;5.45;1.20;;;27.10;45.80;;;;;;4932588;28;45283;-65
2022/06/26 06:12:16;;;;;;;1.80;0.90;;;27.10;45.80;;;;;;4932158;28;46200;-70
2022/06/26 06:14:43;;;;;;;3.80;1.55;;;27.10;45.90;;;;;;4932609;28;45607;-62
2022/06/26 06:19:55;;;;;;;1.92;0.90;;;27.20;45.80;;;;;;4932056;28;44735;-65
2022/06/26 06:22:21;;;;;;;1.38;1.00;;;27.20;45.80;;;;;;4916050;28;45772;-63
2022/06/26 06:24:47;;;;;;;1.20;1.10;;;27.20;45.70;;;;;;4933886;28;45412;-66
2022/06/26 06:27:14;;;;;;;1.00;0.82;;;27.20;45.70;;;;;;4932874;28;45119;-64
2022/06/26 06:29:40;;;;;;;1.40;0.85;;;27.30;45.70;;;;;;4930239;28;45442;-64
2022/06/26 06:32:06;;;;;;;2.40;1.10;;;27.30;45.80;;;;;;4931377;28;46562;-64
2022/06/26 06:34:33;;;;;;;4.93;1.02;;;27.30;46.30;;;;;;4911738;28;45768;-65
2022/06/26 06:36:59;;;;;;;1.13;0.68;;;27.40;45.80;;;;;;4930596;28;46193;-64
2022/06/26 06:39:25;;;;;;;3.50;1.08;;;27.40;45.70;;;;;;4914970;28;45369;-63
2022/06/26 06:41:52;;;;;;;4.07;0.80;;;27.50;45.50;;;;;;4931179;28;46566;-63
2022/06/26 06:44:18;;;;;;;1.33;0.77;;;27.50;45.20;;;;;;4933718;28;45700;-65
2022/06/26 06:46:45;;;;;;;4.07;0.70;;;27.60;45.10;;;;;;4932711;28;45255;-62
2022/06/26 06:49:11;;;;;;;2.83;1.00;;;27.60;45.00;;;;;;4916278;28;45374;-61
2022/06/26 06:51:37;;;;;;;2.10;1.00;;;27.70;45.00;;;;;;4932477;28;46177;-62
2022/06/26 06:54:03;;;;;;;0.95;0.85;;;27.80;44.80;;;;;;4931300;28;45442;-63
2022/06/26 06:56:30;;;;;;;2.15;0.60;;;27.80;44.60;;;;;;4930918;28;45232;-64
2022/06/26 06:58:55;;;;;;;1.40;0.93;;;27.80;44.50;;;;;;4930826;28;45399;-62
2022/06/26 07:01:22;;;;;;;3.72;0.90;;;28.00;44.40;;;;;;4925910;28;46161;-71
2022/06/26 07:03:48;;;;;;;0.88;0.75;;;28.00;44.30;;;;;;4929257;28;45556;-68
2022/06/26 07:06:14;;;;;;;2.80;0.73;;;28.00;44.20;;;;;;4926905;28;45510;-64
2022/06/26 07:08:41;;;;;;;0.85;0.70;;;28.10;44.10;;;;;;4927928;28;45609;-62
2022/06/26 07:11:07;;;;;;;1.27;0.57;;;28.10;44.00;;;;;;4927132;28;46194;-63
2022/06/26 07:13:33;;;;;;;1.05;0.80;;;28.20;44.00;;;;;;4927510;28;45602;-65
2022/06/26 07:16:01;;;;;;;3.22;0.70;;;28.20;43.80;;;;;;4928145;28;45562;-70
2022/06/26 07:18:28;;;;;;;1.25;0.68;;;28.30;43.80;;;;;;4909328;28;45705;-61
2022/06/26 07:20:54;;;;;;;0.80;0.57;;;28.30;43.70;;;;;;4924869;28;45907;-62
2022/06/26 07:23:21;;;;;;;0.80;0.68;;;28.40;43.60;;;;;;4926847;28;45089;-64
2022/06/26 07:25:47;;;;;;;1.08;0.80;;;28.40;43.40;;;;;;4926755;28;46450;-59
2022/06/26 07:28:13;;;;;;;1.20;0.55;;;28.40;43.40;;;;;;4927361;28;44815;-64
2022/06/26 07:30:40;;;;;;;0.60;0.60;;;28.50;43.50;;;;;;4926165;28;45941;-64
2022/06/26 07:34:12;;;;;;;0.68;0.68;;;28.50;43.30;;;;;;4925328;28;46536;-63
2022/06/26 07:35:53;;;;;;;0.95;0.60;;;28.50;43.20;;;;;;4925283;28;45706;-64
2022/06/26 07:38:19;;;;;;;2.28;0.70;;;28.60;43.20;;;;;;4923919;28;45879;-62
2022/06/26 07:40:45;;;;;;;0.95;0.60;;;28.60;43.10;;;;;;4909980;28;46401;-61
2022/06/26 07:43:12;;;;;;;1.17;0.88;;;28.70;43.00;;;;;;4925370;28;45391;-64
2022/06/26 07:45:38;;;;;;;0.95;0.60;;;28.70;43.00;;;;;;4926814;28;45622;-67
2022/06/26 07:48:05;;;;;;;2.67;0.90;;;28.80;43.00;;;;;;4925084;28;46169;-67
2022/06/26 07:50:31;;;;;;;1.67;0.70;;;28.80;42.80;;;;;;4924181;28;46792;-62
2022/06/26 07:52:58;;;;;;;0.50;0.50;;;28.90;42.80;;;;;;4911084;28;45996;-59
2022/06/26 07:55:24;;;;;;;2.65;0.70;;;28.90;42.80;;;;;;4926022;28;45659;-62
2022/06/26 07:57:50;;;;;;;1.40;0.60;;;28.90;42.60;;;;;;4924509;28;45228;-71
2022/06/26 08:00:17;;;;;;;0.77;0.65;;;29.00;42.50;;;;;;4924303;28;45717;-63
2022/06/26 08:02:43;;;;;;;1.13;0.50;;;29.10;42.50;;;;;;4925192;28;45023;-65
2022/06/26 08:05:11;;;;;;;3.63;0.60;;;29.00;42.40;;;;;;4923061;28;46077;-66
2022/06/26 08:07:37;;;;;;;0.95;0.40;;;29.10;42.50;;;;;;4923661;28;45588;-64
2022/06/26 08:10:04;;;;;;;1.00;0.47;;;29.10;42.40;;;;;;4925130;28;47393;-61
2022/06/26 08:12:31;;;;;;;2.05;0.40;;;29.10;42.20;;;;;;4930877;28;45570;-61
2022/06/26 08:14:57;;;;;;;0.80;0.60;;;29.20;42.30;;;;;;4932690;28;46620;-58
2022/06/26 08:17:23;;;;;;;0.57;0.50;;;29.20;42.20;;;;;;4934180;28;45752;-64
2022/06/26 08:19:50;;;;;;;0.40;0.40;;;29.30;42.20;;;;;;4932125;28;45877;-60
2022/06/26 08:22:15;;;;;;;1.00;0.80;;;29.20;42.40;;;;;;4936922;28;45415;-62
2022/06/26 08:24:44;;;;;;;0.40;0.40;;;29.30;42.00;;;;;;4936422;28;45225;-57
2022/06/26 08:27:09;;;;;;;0.70;0.60;;;29.40;41.90;;;;;;4935306;28;45771;-63
2022/06/26 08:29:36;;;;;;;1.00;0.60;;;29.40;41.80;;;;;;4931212;28;45924;-61
2022/06/26 08:32:01;;;;;;;1.02;0.50;;;29.40;41.80;;;;;;4931915;28;45048;-65
2022/06/26 08:34:27;;;;;;;0.43;0.43;;;29.40;41.70;;;;;;4936359;28;45304;-57
2022/06/26 08:36:54;;;;;;;0.75;0.40;;;29.40;41.70;;;;;;4935133;28;45560;-62
2022/06/26 08:39:20;;;;;;;1.15;0.57;;;29.40;41.70;;;;;;4934996;28;46293;-64
2022/06/26 08:41:46;;;;;;;1.45;0.68;;;29.50;41.50;;;;;;4932793;28;45185;-66
2022/06/26 08:44:13;;;;;;;1.20;0.40;;;29.50;41.40;;;;;;4935607;28;46268;-60
2022/06/26 08:46:42;;;;;;;0.40;0.40;;;29.50;41.30;;;;;;4936158;28;45387;-61
2022/06/26 08:49:20;;;;;;;1.67;0.47;;;29.60;41.00;;;;;;4937062;28;46004;-64
2022/06/26 08:51:47;;;;;;;0.82;0.50;;;29.60;40.80;;;;;;4936530;28;45126;-69
2022/06/26 08:54:13;;;;;;;0.40;0.40;;;29.60;41.00;;;;;;4937552;28;45297;-69
2022/06/26 08:56:43;;;;;;;1.02;0.40;;;29.70;40.70;;;;;;4934923;28;44847;-64
2022/06/26 08:59:09;;;;;;;1.00;0.60;;;29.70;40.60;;;;;;4932728;28;46516;-61
2022/06/26 09:01:35;;;;;;;0.60;0.45;;;29.70;40.40;;;;;;4930107;28;46086;-62
2022/06/26 09:04:01;;;;;;;0.38;0.32;;;29.70;40.40;;;;;;4930961;28;45382;-70
2022/06/26 09:06:27;;;;;;;0.50;0.35;;;29.70;40.20;;;;;;4932712;28;45765;-61
2022/06/26 09:08:52;;;;;;;0.38;0.30;;;29.80;40.20;;;;;;4932687;28;45871;-67
2022/06/26 09:11:18;;;;;;;0.90;0.30;;;29.80;40.10;;;;;;4915157;28;45626;-60
2022/06/26 09:13:45;;;;;;;0.35;0.35;;;29.80;40.00;;;;;;4919574;28;45969;-59
2022/06/26 09:16:11;;;;;;;0.43;0.43;;;29.90;39.90;;;;;;4934454;28;45528;-60
2022/06/26 09:18:37;;;;;;;1.10;0.40;;;29.90;39.80;;;;;;4935927;28;46230;-60
2022/06/26 09:21:04;;;;;;;0.45;0.40;;;30.00;39.70;;;;;;4936700;28;44855;-58
2022/06/26 09:23:33;;;;;;;1.13;0.30;;;30.00;39.60;;;;;;4934296;28;45385;-64
2022/06/26 09:25:59;;;;;;;0.68;0.40;;;30.00;39.40;;;;;;4916055;28;45338;-65
2022/06/26 09:28:25;;;;;;;1.48;0.45;;;30.00;39.40;;;;;;4932348;28;47050;-61
2022/06/26 09:31:00;;;;;;;1.23;0.47;;;30.00;39.20;;;;;;4931867;28;45757;-65
2022/06/26 09:33:31;;;;;;;0.45;0.40;;;30.00;39.10;;;;;;4932252;28;45530;-66
2022/06/26 09:35:57;;;;;;;0.60;0.40;;;30.10;38.90;;;;;;4933610;28;45453;-62
2022/06/26 09:38:25;;;;;;;4.05;0.70;;;30.10;39.00;;;;;;4934853;28;46090;-62
2022/06/26 09:40:58;;;;;;;0.50;0.40;;;30.00;39.00;;;;;;4934059;28;45276;-64
2022/06/26 09:43:28;;;;;;;0.30;0.30;;;30.00;38.70;;;;;;4936730;28;45805;-63
2022/06/26 09:45:54;;;;;;;3.03;0.50;;;30.10;38.90;;;;;;4936449;28;45237;-63
2022/06/26 09:48:20;;;;;;;1.10;0.40;;;30.10;39.00;;;;;;4923747;28;46807;-62
2022/06/26 09:50:46;;;;;;;1.27;0.38;;;30.20;39.00;;;;;;4933825;28;45717;-59
2022/06/26 09:53:12;;;;;;;1.10;0.40;;;30.20;38.90;;;;;;4938837;28;45394;-64
2022/06/26 09:55:38;;;;;;;0.35;0.35;;;30.20;38.70;;;;;;4918001;28;45157;-61
2022/06/26 09:58:04;;;;;;;0.70;0.38;;;30.20;38.70;;;;;;4922046;28;45948;-62
2022/06/26 10:00:31;;;;;;;1.15;0.50;;;30.30;38.70;;;;;;4936904;28;45083;-64
2022/06/26 10:06:25;;;;;;;0.70;0.50;;;30.20;38.50;;;;;;4920182;28;45228;-64
2022/06/26 10:08:29;;;;;;;0.55;0.55;;;30.20;38.50;;;;;;4909231;28;46451;-59
2022/06/26 10:10:55;;;;;;;1.15;0.40;;;30.20;38.50;;;;;;4921404;28;45365;-62
2022/06/26 10:13:21;;;;;;;0.95;0.40;;;30.30;38.70;;;;;;4920652;28;45350;-62
2022/06/26 10:15:59;;;;;;;0.50;0.32;;;30.30;38.60;;;;;;4902810;28;45232;-65
2022/06/26 10:18:56;;;;;;;0.85;0.40;;;30.30;38.30;;;;;;4922459;28;46053;-60
2022/06/26 10:21:21;;;;;;;0.50;0.50;;;30.40;38.00;;;;;;4936533;28;44689;-62
2022/06/26 10:23:47;;;;;;;0.65;0.40;;;30.40;38.40;;;;;;4939760;28;45549;-60
2022/06/26 10:26:17;;;;;;;0.28;0.28;;;30.40;38.30;;;;;;4937498;28;44717;-60
2022/06/26 10:29:08;;;;;;;0.30;0.30;;;30.40;38.10;;;;;;4932283;28;47022;-66
2022/06/26 10:31:49;;;;;;;0.40;0.20;;;30.40;38.20;;;;;;4933122;28;45309;-61
2022/06/26 10:34:19;;;;;;;0.20;0.20;;;30.40;38.10;;;;;;4936494;28;45506;-62
2022/06/26 10:36:57;;;;;;;0.35;0.30;;;30.40;38.40;;;;;;4934745;28;45497;-62
2022/06/26 10:39:22;;;;;;;0.35;0.30;;;30.40;38.10;;;;;;4937803;28;46219;-62
2022/06/26 10:44:42;;;;;;;0.47;0.35;;;30.40;38.60;;;;;;4926672;28;45274;-65
2022/06/26 10:47:17;;;;;;;0.30;0.30;;;30.40;38.50;;;;;;4908325;28;45483;-62
2022/06/26 10:49:52;;;;;;;0.57;0.40;;;30.40;38.40;;;;;;4937446;28;46134;-65
2022/06/26 10:52:28;;;;;;;0.30;0.30;;;30.50;38.40;;;;;;4938778;28;44996;-60
2022/06/26 10:54:54;;;;;;;0.47;0.47;;;30.50;38.40;;;;;;4935581;28;44747;-61
2022/06/26 10:57:34;;;;;;;0.73;0.50;;;30.50;38.70;;;;;;4939257;28;44944;-62
2022/06/26 11:00:01;;;;;;;0.50;0.38;;;30.50;38.50;;;;;;4915995;28;46092;-68
2022/06/26 11:02:32;;;;;;;0.70;0.47;;;30.50;38.70;;;;;;4938860;28;45203;-66
2022/06/26 11:04:58;;;;;;;2.63;0.50;;;30.50;38.70;;;;;;4920730;28;45246;-59
2022/06/26 11:07:24;;;;;;;0.93;0.43;;;30.50;38.70;;;;;;4938537;28;44926;-58
2022/06/26 11:09:50;;;;;;;0.57;0.50;;;30.50;38.70;;;;;;4938052;28;46218;-64
2022/06/26 11:12:15;;;;;;;0.60;0.40;;;30.50;38.70;;;;;;4913953;28;44715;-65
2022/06/26 11:14:41;;;;;;;0.63;0.45;;;30.60;38.80;;;;;;4916717;28;45395;-64
2022/06/26 11:17:07;;;;;;;2.65;0.60;;;30.60;38.80;;;;;;4935127;28;45287;-62
2022/06/26 11:20:46;;;;;;;0.98;0.40;;;30.60;38.80;;;;;;4921874;28;47214;-61
2022/06/26 11:22:18;;;;;;;0.50;0.40;;;30.60;38.90;;;;;;4936042;28;45131;-66
2022/06/26 11:24:51;;;;;;;0.90;0.40;;;30.60;38.80;;;;;;4917773;28;45302;-62
2022/06/26 11:27:23;;;;;;;;;;;30.60;38.70;;;;;;4938146;28;45283;-59
2022/06/26 11:29:49;;;;;;;1.38;0.40;;;30.50;38.50;;;;;;4937194;28;46174;-60
2022/06/26 11:32:14;;;;;;;0.40;0.40;;;30.60;38.90;;;;;;4918495;28;45705;-59
2022/06/26 11:34:54;;;;;;;4.15;0.70;;;30.60;38.80;;;;;;4918955;28;45227;-60
2022/06/26 11:37:35;;;;;;;0.75;0.40;;;30.60;38.70;;;;;;4936115;28;45256;-60
2022/06/26 11:40:17;;;;;;;1.65;0.22;;;30.60;38.70;;;;;;4934444;28;45959;-73
2022/06/26 11:42:43;;;;;;;0.67;0.47;;;30.70;38.80;;;;;;4918895;28;45308;-66
2022/06/26 11:45:09;;;;;;;0.60;0.40;;;30.70;39.50;;;;;;4934427;28;45333;-71
2022/06/26 11:47:36;;;;;;;1.13;0.60;;;30.60;38.90;;;;;;4934601;28;45396;-62
2022/06/26 11:50:03;;;;;;;0.77;0.57;;;30.70;38.90;;;;;;4918325;28;46034;-67
2022/06/26 11:52:28;;;;;;;0.57;0.52;;;30.70;38.90;;;;;;4915778;28;45381;-64
2022/06/26 11:55:00;;;;;;;0.47;0.43;;;30.70;38.90;;;;;;4917894;28;45160;-62
2022/06/26 11:57:28;;;;;;;0.40;0.40;;;30.70;38.80;;;;;;4920637;28;45363;-63
2022/06/26 11:59:56;;;;;;;0.45;0.45;;;30.70;38.90;;;;;;4921692;28;45508;-62
2022/06/26 12:02:25;;;;;;;0.40;0.40;;;30.70;38.90;;;;;;4921457;28;45447;-63
2022/06/26 12:04:57;;;;;;;0.68;0.50;;;30.70;39.00;;;;;;4940376;28;45310;-62
2022/06/26 12:07:26;;;;;;;0.50;0.50;;;30.70;38.90;;;;;;4940439;28;45538;-59
2022/06/26 12:09:55;;;;;;;0.80;0.50;;;30.70;39.00;;;;;;4912446;28;45413;-65
2022/06/26 12:12:26;;;;;;;0.57;0.52;;;30.70;39.00;;;;;;4941784;28;45404;-64
2022/06/26 12:15:15;;;;;;;0.60;0.60;;;30.70;39.00;;;;;;4922306;28;44916;-68
2022/06/26 12:18:02;;;;;;;1.35;0.40;;;30.70;39.00;;;;;;4904397;28;45249;-68
2022/06/26 12:20:49;;;;;;;0.60;0.50;;;30.70;39.10;;;;;;4922078;28;45089;-65
2022/06/26 12:23:30;;;;;;;2.35;0.50;;;30.70;39.10;;;;;;4930545;28;47035;-68
2022/06/26 12:26:08;;;;;;;0.82;0.50;;;30.70;38.90;;;;;;4928536;28;45344;-66
2022/06/26 12:28:52;;;;;;;2.58;0.60;;;30.70;39.00;;;;;;4916315;28;45596;-66
2022/06/26 12:31:21;;;;;;;0.80;0.38;;;30.80;39.10;;;;;;4931766;28;45404;-68
2022/06/26 12:33:49;;;;;;;1.80;0.60;;;30.70;39.10;;;;;;4917541;28;45441;-66
2022/06/26 12:36:19;;;;;;;1.83;0.60;;;30.80;39.20;;;;;;4932367;28;45361;-68
2022/06/26 12:38:47;;;;;;;0.63;0.43;;;30.80;39.20;;;;;;4932440;28;45506;-64
2022/06/26 12:41:19;;;;;;;1.15;0.32;;;30.80;39.20;;;;;;4933506;28;45657;-66
2022/06/26 12:43:50;;;;;;;0.55;0.50;;;30.80;39.20;;;;;;4911145;28;45674;-73
2022/06/26 12:46:19;;;;;;;0.63;0.47;;;30.80;39.20;;;;;;4922736;28;46075;-69
2022/06/26 12:48:46;;;;;;;0.50;0.50;;;30.80;39.30;;;;;;4910040;28;45699;-66
2022/06/26 12:51:15;;;;;;;2.40;0.60;;;30.80;39.90;;;;;;4928956;28;45361;-64
2022/06/26 12:54:01;;;;;;;0.60;0.60;;;30.80;39.30;;;;;;4934815;28;45210;-63
2022/06/26 12:56:48;;;;;;;1.50;0.40;;;30.80;39.30;;;;;;4918584;28;44702;-72
2022/06/26 12:59:34;;;;;;;0.45;0.30;;;30.80;39.30;;;;;;4922394;28;45056;-62
2022/06/26 13:02:20;;;;;;;0.63;0.40;;;30.80;39.30;;;;;;4921390;28;45301;-61
2022/06/26 13:04:51;;;;;;;0.50;0.50;;;30.80;39.30;;;;;;4938167;28;45579;-64
2022/06/26 13:07:21;;;;;;;0.50;0.50;;;30.80;39.30;;;;;;4922289;28;45239;-63
2022/06/26 13:09:50;;;;;;;0.40;0.40;;;30.80;39.40;;;;;;4938996;28;44928;-65
2022/06/26 13:12:20;;;;;;;2.40;0.50;;;30.80;39.40;;;;;;4937158;28;45447;-63
2022/06/26 13:14:50;;;;;;;0.50;0.40;;;30.80;39.40;;;;;;4937781;28;45464;-61
2022/06/26 13:17:20;;;;;;;0.45;0.45;;;30.80;39.40;;;;;;4938767;28;45525;-61
2022/06/26 13:19:46;;;;;;;1.60;0.60;;;30.80;39.40;;;;;;4942197;28;45317;-62
2022/06/26 13:22:16;;;;;;;0.82;0.50;;;30.80;39.50;;;;;;4940100;28;45556;-58
2022/06/26 13:24:46;;;;;;;0.57;0.40;;;30.80;39.40;;;;;;4940667;28;45206;-62
2022/06/26 13:27:15;;;;;;;0.50;0.50;;;30.80;39.40;;;;;;4923013;28;44942;-58
2022/06/26 13:29:45;;;;;;;1.05;0.50;;;30.80;39.40;;;;;;4938576;28;45438;-60
2022/06/26 13:32:16;;;;;;;0.50;0.50;;;30.80;39.40;;;;;;4934974;28;45318;-66
2022/06/26 13:34:46;;;;;;;0.45;0.45;;;30.80;39.40;;;;;;4920678;28;44807;-66
2022/06/26 13:37:18;;;;;;;0.50;0.50;;;30.90;39.40;;;;;;4940214;28;45238;-64
2022/06/26 13:39:49;;;;;;;1.00;0.55;;;30.90;39.50;;;;;;4919437;28;45975;-64
2022/06/26 13:42:19;;;;;;;0.40;0.40;;;30.90;39.50;;;;;;4937431;28;45943;-62
2022/06/26 13:44:49;;;;;;;0.40;0.40;;;30.80;39.50;;;;;;4936563;28;45649;-66
2022/06/26 13:47:28;;;;;;;0.70;0.70;;;30.90;39.50;;;;;;4935613;28;45657;-67
2022/06/26 13:49:59;;;;;;;0.60;0.60;;;30.90;39.50;;;;;;4936769;28;45223;-70
2022/06/26 13:52:31;;;;;;;0.55;0.50;;;30.90;39.50;;;;;;4907380;28;45698;-66
2022/06/26 13:55:06;;;;;;;0.50;0.50;;;30.90;39.50;;;;;;4938096;28;45433;-61
2022/06/26 13:57:36;;;;;;;0.40;0.40;;;30.90;39.50;;;;;;4938169;28;45498;-59
2022/06/26 14:00:10;;;;;;;0.50;0.47;;;30.90;39.50;;;;;;4936791;28;45655;-63
2022/06/26 14:02:43;;;;;;;0.93;0.50;;;30.90;39.50;;;;;;4936857;28;46400;-63
2022/06/26 14:05:22;;;;;;;1.98;0.60;;;30.90;39.50;;;;;;4926481;28;45765;-61
2022/06/26 14:07:58;;;;;;;0.85;0.57;;;30.90;39.50;;;;;;4939845;28;45299;-61
2022/06/26 14:10:38;;;;;;;0.55;0.55;;;30.90;39.50;;;;;;4938058;28;45217;-62
2022/06/26 14:13:14;;;;;;;0.50;0.50;;;30.90;39.50;;;;;;4923584;28;46154;-60
2022/06/26 14:15:46;;;;;;;0.52;0.52;;;30.90;39.50;;;;;;4935217;28;45334;-59
2022/06/26 14:18:14;;;;;;;0.60;0.60;;;30.90;39.60;;;;;;4935312;28;45405;-59
2022/06/26 14:20:41;;;;;;;1.05;0.60;;;30.90;39.60;;;;;;4932505;28;45382;-64
2022/06/26 14:26:02;;;;;;;0.50;0.50;;;30.90;39.60;;;;;;4932201;28;45451;-62
2022/06/26 14:28:33;;;;;;;0.82;0.50;;;30.90;39.60;;;;;;4939483;28;45114;-63
2022/06/26 14:31:02;;;;;;;1.02;0.60;;;30.90;39.70;;;;;;4937777;28;45149;-61
2022/06/26 14:33:29;;;;;;;0.52;0.52;;;30.90;39.70;;;;;;4922106;28;46095;-65
2022/06/26 14:35:59;;;;;;;0.50;0.50;;;30.90;39.70;;;;;;4927539;28;45364;-61
2022/06/26 14:38:28;;;;;;;0.47;0.47;;;30.90;39.70;;;;;;4931753;28;45494;-64
2022/06/26 14:40:57;;;;;;;0.50;0.50;;;30.90;39.70;;;;;;4929596;28;45340;-63
2022/06/26 14:43:24;;;;;;;0.60;0.60;;;30.90;39.80;;;;;;4931319;28;46188;-65
2022/06/26 14:45:49;;;;;;;0.50;0.50;;;30.90;39.80;;;;;;4929597;28;45293;-64
2022/06/26 14:48:15;;;;;;;0.98;0.55;;;30.90;39.70;;;;;;4930618;28;45110;-64
2022/06/26 14:50:43;;;;;;;0.50;0.50;;;30.90;39.70;;;;;;4929619;28;46350;-61
2022/06/26 14:53:09;;;;;;;0.40;0.40;;;30.90;39.80;;;;;;4929344;28;46945;-68
2022/06/26 14:55:36;;;;;;;0.50;0.50;;;30.90;39.70;;;;;;4933488;28;44640;-65
2022/06/26 14:58:02;;;;;;;0.50;0.50;;;30.90;39.70;;;;;;4934100;28;45111;-65
2022/06/26 15:00:28;;;;;;;0.60;0.60;;;30.90;39.80;;;;;;4929259;28;45246;-67
2022/06/26 15:02:53;;;;;;;0.80;0.60;;;30.90;39.80;;;;;;4930545;28;47179;-65
2022/06/26 15:05:19;;;;;;;0.30;0.30;;;30.90;39.80;;;;;;4930583;28;45271;-68
2022/06/26 15:07:46;;;;;;;0.50;0.50;;;30.80;39.80;;;;;;4927131;28;45238;-67
2022/06/26 15:10:12;;;;;;;0.60;0.60;;;30.90;39.80;;;;;;4930736;28;44770;-65
2022/06/26 15:12:40;;;;;;;0.60;0.50;;;30.90;39.80;;;;;;4927573;28;45984;-67
2022/06/26 15:15:07;;;;;;;1.48;0.60;;;30.90;39.80;;;;;;4928380;28;45828;-68
2022/06/26 15:17:32;;;;;;;0.40;0.40;;;30.90;39.70;;;;;;4930604;28;45746;-64
2022/06/26 15:19:58;;;;;;;0.60;0.60;;;30.90;39.70;;;;;;4930400;28;45149;-65
2022/06/26 15:22:24;;;;;;;0.50;0.50;;;30.90;39.80;;;;;;4925581;28;46170;-66
2022/06/26 15:24:49;;;;;;;0.50;0.50;;;30.90;39.80;;;;;;4924585;28;45478;-62
2022/06/26 15:27:15;;;;;;;0.50;0.50;;;30.90;39.80;;;;;;4929994;28;45504;-63
2022/06/26 15:29:40;;;;;;;0.50;0.50;;;30.90;39.80;;;;;;4932680;28;45293;-62
2022/06/26 15:32:13;;;;;;;0.60;0.60;;;31.00;39.90;;;;;;4926279;28;46219;-66
2022/06/26 15:34:41;;;;;;;0.50;0.50;;;31.00;39.80;;;;;;4929535;28;45204;-66
2022/06/26 15:37:06;;;;;;;0.57;0.40;;;31.00;39.80;;;;;;4930230;28;45391;-65
2022/06/26 15:39:32;;;;;;;0.50;0.50;;;31.00;39.80;;;;;;4929193;28;45186;-65
2022/06/26 15:41:57;;;;;;;0.82;0.70;;;31.00;39.80;;;;;;4928315;28;46028;-68
2022/06/26 15:44:23;;;;;;;0.50;0.50;;;31.00;39.90;;;;;;4931716;28;45338;-68
2022/06/26 15:46:48;;;;;;;0.55;0.55;;;31.00;39.90;;;;;;4930978;28;45487;-62
2022/06/26 15:49:14;;;;;;;0.50;0.50;;;31.00;39.90;;;;;;4930655;28;45443;-63
2022/06/26 15:51:39;;;;;;;0.47;0.47;;;31.00;39.90;;;;;;4930394;28;46528;-63
2022/06/26 15:54:05;;;;;;;0.50;0.50;;;31.00;39.80;;;;;;4928218;28;45211;-64
2022/06/26 15:56:31;;;;;;;0.50;0.50;;;31.00;39.80;;;;;;4929414;28;45896;-65
2022/06/26 15:58:56;;;;;;;1.13;0.55;;;31.00;39.90;;;;;;4930200;28;45456;-62
2022/06/26 16:01:22;;;;;;;0.52;0.52;;;31.00;39.90;;;;;;4928293;28;47133;-67
2022/06/26 16:03:47;;;;;;;0.47;0.47;;;31.00;39.90;;;;;;4929025;28;45258;-63
2022/06/26 16:06:13;;;;;;;0.40;0.40;;;31.00;39.90;;;;;;4928353;28;45759;-68
2022/06/26 16:08:38;;;;;;;0.70;0.70;;;31.00;40.00;;;;;;4932786;28;45606;-64